Time;durP1;ratioP1;P1;durP2;ratioP2;P2;SDS_P1;SDS_P2;PMS_P1;PMS_P2;Temp;Humidity;BMP_temperature;BMP_pressure;BME280_temperature;BME280_humidity;BME280_pressure;Samples;Min_cycle;Max_cycle;Signal;HPM_P1;HPM_P2
2021/11/14 00:00:16;;;;;;;5.90;1.55;;;30.30;25.80;;;;;;5062026;28;20198;-57
2021/11/14 00:02:42;;;;;;;6.13;1.67;;;30.10;25.60;;;;;;5043215;28;20167;-56
2021/11/14 00:05:09;;;;;;;7.75;1.40;;;30.00;26.30;;;;;;5062893;28;20089;-59
2021/11/14 00:07:36;;;;;;;3.78;1.23;;;29.90;26.50;;;;;;5067587;28;20134;-60
2021/11/14 00:10:04;;;;;;;5.32;1.25;;;29.80;26.00;;;;;;5077333;28;20076;-57
2021/11/14 00:12:33;;;;;;;6.95;1.63;;;29.70;26.80;;;;;;5063571;28;20077;-61
2021/11/14 00:14:59;;;;;;;8.90;1.42;;;29.60;27.00;;;;;;5076715;28;20429;-57
2021/11/14 00:17:26;;;;;;;14.68;2.05;;;29.50;26.80;;;;;;5095991;28;20108;-58
2021/11/14 00:19:52;;;;;;;15.95;1.75;;;29.40;27.40;;;;;;5077574;28;20539;-58
2021/11/14 00:22:18;;;;;;;3.00;1.40;;;29.20;27.60;;;;;;5074105;28;20141;-56
2021/11/14 00:24:45;;;;;;;9.35;3.70;;;29.10;27.90;;;;;;5056268;28;20084;-58
2021/11/14 00:27:11;;;;;;;20.90;8.50;;;29.00;28.40;;;;;;5055235;28;20093;-57
2021/11/14 00:29:38;;;;;;;20.42;9.25;;;28.80;28.60;;;;;;5057229;28;20087;-61
2021/11/14 00:32:05;;;;;;;12.75;8.20;;;28.70;29.10;;;;;;5068929;28;20088;-59
2021/11/14 00:34:34;;;;;;;25.75;7.95;;;28.60;29.60;;;;;;5069658;28;20168;-58
2021/11/14 00:37:00;;;;;;;27.35;10.68;;;28.40;30.00;;;;;;5060742;28;20081;-64
2021/11/14 00:39:27;;;;;;;26.45;12.38;;;28.30;30.40;;;;;;5091191;28;20156;-58
2021/11/14 00:41:53;;;;;;;29.58;13.25;;;28.10;30.60;;;;;;5069756;28;20550;-59
2021/11/14 00:44:20;;;;;;;28.75;13.20;;;28.00;31.10;;;;;;5073876;28;20595;-56
2021/11/14 00:46:48;;;;;;;27.42;12.25;;;27.80;31.40;;;;;;5074053;28;20160;-57
2021/11/14 00:49:16;;;;;;;33.08;11.18;;;27.70;31.40;;;;;;5092233;28;20077;-56
2021/11/14 00:51:43;;;;;;;20.70;10.23;;;27.50;31.70;;;;;;5038098;28;20073;-59
2021/11/14 00:54:10;;;;;;;19.20;8.30;;;27.30;62.70;;;;;;5073014;28;20072;-57
2021/11/14 00:56:36;;;;;;;20.92;9.38;;;27.10;32.30;;;;;;5073896;28;20065;-60
2021/11/14 00:59:03;;;;;;;24.58;9.05;;;27.10;33.00;;;;;;5073986;28;20534;-56
2021/11/14 01:01:29;;;;;;;22.00;9.60;;;26.90;33.50;;;;;;5092767;28;20120;-58
2021/11/14 01:03:57;;;;;;;26.42;11.05;;;26.80;33.60;;;;;;5079134;28;20108;-59
2021/11/14 01:06:24;;;;;;;25.92;13.73;;;26.70;33.90;;;;;;5059893;28;20073;-58
2021/11/14 01:08:50;;;;;;;33.30;15.73;;;26.60;34.70;;;;;;5060588;28;20176;-59
2021/11/14 01:11:17;;;;;;;32.88;15.88;;;26.50;34.40;;;;;;5080088;28;20069;-57
2021/11/14 01:13:45;;;;;;;28.42;14.93;;;26.40;33.90;;;;;;5070145;28;20158;-55
2021/11/14 01:16:16;;;;;;;30.00;12.57;;;26.20;34.20;;;;;;5082811;28;20114;-57
2021/11/14 01:18:43;;;;;;;29.40;11.88;;;26.10;34.90;;;;;;5054101;28;20080;-56
2021/11/14 01:21:16;;;;;;;27.33;11.15;;;26.10;35.20;;;;;;5082039;28;20084;-59
2021/11/14 01:23:45;;;;;;;22.77;10.57;;;26.00;35.30;;;;;;5064958;28;20077;-58
2021/11/14 01:26:12;;;;;;;25.83;10.38;;;25.80;35.60;;;;;;5036969;28;20092;-56
2021/11/14 01:28:39;;;;;;;30.83;9.82;;;25.70;35.70;;;;;;5080566;28;20089;-59
2021/11/14 01:31:06;;;;;;;30.25;9.93;;;25.70;36.70;;;;;;5061496;28;20069;-56
2021/11/14 01:33:32;;;;;;;27.83;9.57;;;25.60;36.40;;;;;;5062454;28;20572;-56
2021/11/14 01:36:00;;;;;;;37.53;11.23;;;25.50;36.60;;;;;;5063866;28;20168;-57
2021/11/14 01:38:28;;;;;;;42.85;17.02;;;25.40;36.90;;;;;;5062880;28;20073;-56
2021/11/14 01:40:57;;;;;;;42.10;16.63;;;25.40;37.00;;;;;;5052383;28;20238;-58
2021/11/14 01:43:47;;;;;;;57.40;27.25;;;25.30;37.80;;;;;;5064803;28;20096;-56
2021/11/14 01:46:14;;;;;;;54.88;30.50;;;25.30;37.90;;;;;;5062751;28;20069;-56
2021/11/14 01:48:41;;;;;;;45.95;24.58;;;25.20;38.10;;;;;;5046272;28;20546;-56
2021/11/14 01:51:09;;;;;;;43.72;20.48;;;25.10;37.30;;;;;;5082002;28;20587;-56
2021/11/14 01:53:37;;;;;;;35.05;15.82;;;25.00;37.20;;;;;;5086703;28;20088;-57
2021/11/14 01:56:11;;;;;;;36.50;16.30;;;24.90;37.00;;;;;;5091766;28;20084;-55
2021/11/14 01:58:38;;;;;;;39.55;18.20;;;24.90;37.30;;;;;;5056872;28;20072;-56
2021/11/14 02:01:13;;;;;;;65.30;22.40;;;24.80;37.80;;;;;;5057695;28;20115;-60
2021/11/14 02:03:47;;;;;;;73.35;25.25;;;24.80;37.70;;;;;;5056996;28;20087;-60
2021/11/14 02:06:14;;;;;;;68.30;26.85;;;24.70;38.00;;;;;;5073312;28;20730;-60
2021/11/14 02:08:42;;;;;;;78.03;32.97;;;24.50;38.20;;;;;;5088397;28;20161;-60
2021/11/14 02:11:14;;;;;;;85.35;48.72;;;24.50;38.80;;;;;;5072301;28;20088;-58
2021/11/14 02:13:41;;;;;;;113.30;58.85;;;24.50;38.70;;;;;;5040405;28;20069;-62
2021/11/14 02:16:08;;;;;;;111.35;54.03;;;24.50;39.10;;;;;;5073206;28;20079;-57
2021/11/14 02:18:34;;;;;;;97.20;47.70;;;24.40;39.60;;;;;;5073150;28;20096;-58
2021/11/14 02:21:01;;;;;;;95.55;44.53;;;24.40;39.80;;;;;;5056593;28;20734;-60
2021/11/14 02:23:27;;;;;;;98.75;44.40;;;24.30;39.80;;;;;;5066115;28;20143;-62
2021/11/14 02:25:54;;;;;;;88.00;40.30;;;24.30;40.10;;;;;;5053566;28;20076;-59
2021/11/14 02:28:23;;;;;;;80.28;42.42;;;24.20;40.10;;;;;;5036707;28;20187;-61
2021/11/14 02:30:51;;;;;;;97.45;42.53;;;24.10;40.60;;;;;;5037209;28;20130;-56
2021/11/14 02:33:19;;;;;;;92.03;42.33;;;24.10;40.60;;;;;;5053256;28;20411;-60
2021/11/14 02:35:51;;;;;;;82.38;40.60;;;24.00;40.80;;;;;;5072424;28;20153;-61
2021/11/14 02:38:20;;;;;;;82.95;38.53;;;24.00;41.30;;;;;;5040916;28;20073;-56
2021/11/14 02:40:47;;;;;;;89.22;37.47;;;23.90;41.30;;;;;;5085892;28;20168;-58
2021/11/14 02:43:14;;;;;;;76.68;33.13;;;23.90;41.70;;;;;;5058206;28;20140;-61
2021/11/14 02:45:41;;;;;;;72.20;29.95;;;23.80;41.60;;;;;;5090607;28;20083;-58
2021/11/14 02:48:09;;;;;;;74.43;27.52;;;23.80;42.00;;;;;;5055537;28;20183;-59
2021/11/14 02:50:36;;;;;;;56.80;24.25;;;23.70;42.20;;;;;;5090813;28;20561;-59
2021/11/14 02:53:04;;;;;;;58.42;24.00;;;23.70;42.00;;;;;;5072806;28;20095;-59
2021/11/14 02:55:35;;;;;;;55.75;22.55;;;23.60;42.30;;;;;;5072487;28;20129;-60
2021/11/14 02:58:02;;;;;;;59.92;21.10;;;23.40;42.30;;;;;;5054071;28;20108;-63
2021/11/14 03:00:33;;;;;;;63.75;21.75;;;23.40;42.70;;;;;;5088982;28;20115;-66
2021/11/14 03:03:00;;;;;;;63.83;21.77;;;23.40;42.60;;;;;;5071489;28;20076;-62
2021/11/14 03:05:27;;;;;;;55.33;19.70;;;23.30;42.60;;;;;;5055804;28;20460;-56
2021/11/14 03:07:54;;;;;;;45.25;17.33;;;23.10;76.80;;;;;;5065335;28;20179;-63
2021/11/14 03:10:27;;;;;;;46.55;16.02;;;23.20;67.20;;;;;;5090669;28;20020;-60
2021/11/14 03:13:05;;;;;;;44.85;14.27;;;23.20;43.30;;;;;;5077440;28;20068;-58
2021/11/14 03:15:35;;;;;;;46.85;14.73;;;23.00;43.50;;;;;;5049731;28;20054;-64
2021/11/14 03:18:02;;;;;;;40.97;14.02;;;22.90;74.00;;;;;;5090853;28;20071;-62
2021/11/14 03:20:29;;;;;;;47.22;14.95;;;23.00;43.50;;;;;;5056167;28;20083;-61
2021/11/14 03:22:55;;;;;;;53.67;15.50;;;22.90;43.90;;;;;;5036681;28;20113;-58
2021/11/14 03:25:25;;;;;;;43.50;14.02;;;22.90;44.60;;;;;;5070886;28;20066;-60
2021/11/14 03:27:53;;;;;;;53.97;16.55;;;22.70;62.00;;;;;;5072012;28;20433;-61
2021/11/14 03:30:22;;;;;;;46.58;17.35;;;22.80;43.80;;;;;;5091167;28;20068;-59
2021/11/14 03:32:48;;;;;;;50.05;18.98;;;22.80;43.90;;;;;;5055708;28;20062;-62
2021/11/14 03:35:16;;;;;;;48.80;18.98;;;22.70;43.90;;;;;;5090723;28;20076;-59
2021/11/14 03:37:42;;;;;;;59.33;20.63;;;22.60;57.90;;;;;;5070558;28;20674;-63
2021/11/14 03:40:10;;;;;;;64.75;22.58;;;22.60;44.40;;;;;;5088945;28;20106;-61
2021/11/14 03:42:37;;;;;;;65.18;22.23;;;22.60;45.10;;;;;;5058742;28;20109;-59
2021/11/14 03:45:06;;;;;;;72.38;23.52;;;22.60;44.90;;;;;;5052540;28;20087;-59
2021/11/14 03:47:32;;;;;;;81.03;25.80;;;22.50;45.00;;;;;;5044297;28;20123;-61
2021/11/14 03:49:58;;;;;;;84.00;24.75;;;22.50;45.10;;;;;;5090314;28;20080;-59
2021/11/14 03:52:25;;;;;;;86.45;29.27;;;22.60;45.20;;;;;;5055478;28;20085;-58
2021/11/14 03:54:52;;;;;;;84.68;29.70;;;22.50;45.30;;;;;;5055569;28;20100;-58
2021/11/14 03:57:18;;;;;;;80.40;29.13;;;22.50;45.60;;;;;;5054940;28;20561;-58
2021/11/14 03:59:44;;;;;;;84.38;30.25;;;22.40;45.70;;;;;;5074627;28;20759;-57
2021/11/14 04:02:11;;;;;;;88.18;29.40;;;22.40;45.70;;;;;;5042914;28;20090;-57
2021/11/14 04:04:37;;;;;;;74.80;28.00;;;22.40;46.20;;;;;;5074418;28;20455;-57
2021/11/14 04:07:04;;;;;;;75.00;26.15;;;22.30;46.30;;;;;;5075556;28;20218;-60
2021/11/14 04:09:30;;;;;;;81.05;24.63;;;22.30;46.70;;;;;;5075493;28;20069;-59
2021/11/14 04:11:57;;;;;;;71.90;23.92;;;22.20;46.40;;;;;;5048776;28;20065;-60
2021/11/14 04:14:23;;;;;;;75.82;26.58;;;22.20;46.60;;;;;;5057559;28;20549;-57
2021/11/14 04:16:49;;;;;;;75.38;24.75;;;22.10;46.20;;;;;;5056410;28;20118;-57
2021/11/14 04:19:16;;;;;;;67.35;25.77;;;22.20;46.30;;;;;;5076041;28;20169;-62
2021/11/14 04:21:42;;;;;;;78.88;25.27;;;22.10;46.10;;;;;;5093555;28;20073;-56
2021/11/14 04:24:09;;;;;;;72.05;25.75;;;22.20;46.60;;;;;;5063376;28;20383;-60
2021/11/14 04:26:35;;;;;;;81.63;26.02;;;22.20;46.60;;;;;;5074872;28;20102;-58
2021/11/14 04:29:01;;;;;;;68.97;24.33;;;22.20;46.40;;;;;;5061489;28;20103;-58
2021/11/14 04:31:28;;;;;;;65.93;23.95;;;22.20;46.50;;;;;;5040535;28;20073;-62
2021/11/14 04:33:54;;;;;;;66.80;23.33;;;22.10;46.40;;;;;;5074396;28;20077;-58
2021/11/14 04:36:21;;;;;;;69.50;22.45;;;22.00;47.70;;;;;;5075457;28;20085;-63
2021/11/14 04:38:47;;;;;;;67.90;22.70;;;22.00;47.40;;;;;;5075162;28;20089;-57
2021/11/14 04:41:13;;;;;;;77.95;23.13;;;21.90;47.70;;;;;;5038500;28;20073;-59
2021/11/14 04:43:40;;;;;;;74.95;23.65;;;21.80;47.70;;;;;;5038767;28;20089;-60
2021/11/14 04:46:06;;;;;;;71.32;24.95;;;21.80;47.70;;;;;;5059464;28;20447;-60
2021/11/14 04:48:33;;;;;;;79.38;26.45;;;21.70;47.60;;;;;;5071135;28;20158;-63
2021/11/14 04:51:00;;;;;;;70.55;24.70;;;22.10;89.00;;;;;;5092048;28;20087;-59
2021/11/14 04:53:26;;;;;;;70.82;24.95;;;21.60;48.30;;;;;;5093051;28;20083;-60
2021/11/14 04:55:53;;;;;;;91.25;26.05;;;21.50;48.60;;;;;;5093200;28;20491;-63
2021/11/14 04:58:19;;;;;;;96.00;27.95;;;21.50;49.00;;;;;;5075017;28;20092;-62
2021/11/14 05:00:54;;;;;;;110.95;29.48;;;21.50;49.00;;;;;;5074820;28;20112;-59
2021/11/14 05:03:22;;;;;;;129.93;34.72;;;21.50;49.10;;;;;;5074827;28;20076;-59
2021/11/14 05:05:49;;;;;;;131.82;39.75;;;21.50;49.30;;;;;;5057889;28;20076;-60
2021/11/14 05:08:16;;;;;;;142.35;38.55;;;21.60;49.30;;;;;;5054234;28;20610;-58
2021/11/14 05:10:44;;;;;;;113.32;34.80;;;21.60;49.00;;;;;;5071906;28;20104;-59
2021/11/14 05:13:12;;;;;;;103.07;33.38;;;21.60;49.10;;;;;;5054487;28;20068;-57
2021/11/14 05:15:38;;;;;;;98.88;33.20;;;21.60;49.10;;;;;;5055017;28;20065;-57
2021/11/14 05:18:05;;;;;;;94.20;31.40;;;21.50;48.90;;;;;;5056962;28;20392;-61
2021/11/14 05:20:31;;;;;;;114.82;32.63;;;21.40;49.90;;;;;;5075851;28;20087;-59
2021/11/14 05:22:58;;;;;;;105.82;33.25;;;21.40;50.00;;;;;;5055755;28;20637;-62
2021/11/14 05:25:24;;;;;;;120.45;38.10;;;21.40;50.40;;;;;;5054863;28;20079;-60
2021/11/14 05:27:51;;;;;;;103.72;36.90;;;21.40;49.90;;;;;;5055060;28;20112;-61
2021/11/14 05:30:17;;;;;;;106.35;40.42;;;21.30;50.20;;;;;;5056931;28;20085;-63
2021/11/14 05:32:44;;;;;;;120.65;42.88;;;21.30;50.60;;;;;;5092870;28;20595;-60
2021/11/14 05:35:10;;;;;;;164.80;56.63;;;21.30;50.40;;;;;;5073775;28;20443;-62
2021/11/14 05:37:38;;;;;;;150.10;61.88;;;21.20;49.90;;;;;;5091926;28;20073;-59
2021/11/14 05:40:07;;;;;;;146.48;49.78;;;21.20;49.90;;;;;;5057336;28;20126;-62
2021/11/14 05:42:34;;;;;;;145.80;48.17;;;21.20;50.30;;;;;;5073947;28;20527;-62
2021/11/14 05:45:01;;;;;;;153.00;43.38;;;21.10;50.60;;;;;;5069828;28;20073;-59
2021/11/14 05:47:28;;;;;;;130.05;40.67;;;21.10;50.30;;;;;;5073619;28;20179;-60
2021/11/14 05:49:54;;;;;;;122.97;37.60;;;21.20;50.20;;;;;;5055579;28;20469;-58
2021/11/14 05:52:21;;;;;;;123.13;37.50;;;21.20;50.20;;;;;;5072483;28;20069;-60
2021/11/14 05:54:47;;;;;;;114.32;38.50;;;21.10;50.70;;;;;;5073726;28;20114;-62
2021/11/14 05:57:15;;;;;;;134.55;41.13;;;21.00;50.80;;;;;;5058207;28;20115;-61
2021/11/14 06:02:21;;;;;;;133.43;42.25;;;21.00;50.80;;;;;;5091588;28;20085;-63
2021/11/14 06:04:59;;;;;;;139.48;42.40;;;20.90;51.00;;;;;;5091539;28;20102;-61
2021/11/14 06:07:29;;;;;;;122.72;40.15;;;21.00;50.80;;;;;;5073254;28;20088;-58
2021/11/14 06:09:57;;;;;;;128.30;43.08;;;20.90;51.20;;;;;;5072770;28;20075;-60
2021/11/14 06:12:24;;;;;;;146.13;44.13;;;20.80;51.60;;;;;;5058512;28;21083;-61
2021/11/14 06:14:50;;;;;;;125.22;41.70;;;20.80;51.20;;;;;;5035583;28;20076;-61
2021/11/14 06:17:20;;;;;;;123.28;41.58;;;20.80;51.30;;;;;;5038423;28;20065;-59
2021/11/14 06:19:47;;;;;;;107.90;42.50;;;20.70;51.60;;;;;;5061000;28;20069;-59
2021/11/14 06:22:14;;;;;;;119.00;42.17;;;20.70;51.30;;;;;;5038198;28;20073;-59
2021/11/14 06:24:41;;;;;;;135.82;45.45;;;20.70;51.20;;;;;;5050107;28;20072;-57
2021/11/14 06:27:08;;;;;;;127.30;47.40;;;20.60;51.30;;;;;;5072577;28;20099;-58
2021/11/14 06:29:34;;;;;;;132.63;47.13;;;20.60;51.60;;;;;;5056590;28;20068;-62
2021/11/14 06:32:00;;;;;;;133.57;43.60;;;20.60;51.60;;;;;;5057111;28;20072;-62
2021/11/14 06:34:27;;;;;;;150.02;44.53;;;20.60;51.70;;;;;;5073027;28;20073;-57
2021/11/14 06:36:53;;;;;;;124.45;42.92;;;20.60;51.50;;;;;;5091154;28;20133;-58
2021/11/14 06:39:20;;;;;;;118.47;43.35;;;20.60;51.60;;;;;;5056271;28;20236;-62
2021/11/14 06:41:47;;;;;;;138.65;43.35;;;20.50;51.90;;;;;;5072686;28;20073;-56
2021/11/14 06:44:13;;;;;;;139.85;42.90;;;20.50;51.70;;;;;;5056056;28;20072;-57
2021/11/14 06:46:39;;;;;;;111.22;39.50;;;20.40;50.90;;;;;;5072554;28;20505;-58
2021/11/14 06:49:06;;;;;;;105.68;38.80;;;20.10;90.90;;;;;;5072520;28;20060;-58
2021/11/14 06:51:32;;;;;;;119.20;39.15;;;20.30;57.90;;;;;;5055932;28;20114;-58
2021/11/14 06:53:59;;;;;;;118.82;38.72;;;;;;;;;;5072811;28;20028;-62
2021/11/14 06:56:25;;;;;;;135.27;39.85;;;20.00;64.60;;;;;;5037397;28;20029;-59
2021/11/14 06:58:52;;;;;;;111.30;37.33;;;20.00;60.90;;;;;;5072389;28;20055;-59
2021/11/14 07:01:18;;;;;;;104.72;38.25;;;20.40;53.60;;;;;;5090855;28;20187;-59
2021/11/14 07:03:45;;;;;;;120.72;39.35;;;20.30;52.10;;;;;;5059305;28;20089;-56
2021/11/14 07:06:11;;;;;;;123.78;38.97;;;20.30;51.80;;;;;;5061181;28;20077;-57
2021/11/14 07:08:37;;;;;;;113.78;37.83;;;20.30;51.50;;;;;;5060649;28;20124;-59
2021/11/14 07:11:04;;;;;;;110.10;38.30;;;20.40;52.30;;;;;;5063014;28;20115;-58
2021/11/14 07:13:32;;;;;;;102.43;37.55;;;20.40;51.80;;;;;;5060212;28;20745;-57
2021/11/14 07:15:58;;;;;;;102.38;36.72;;;20.40;51.50;;;;;;5080275;28;20076;-62
2021/11/14 07:18:25;;;;;;;98.72;37.38;;;20.40;51.50;;;;;;5060677;28;20557;-59
2021/11/14 07:20:52;;;;;;;111.72;37.17;;;20.30;51.70;;;;;;5061847;28;20097;-59
2021/11/14 07:23:18;;;;;;;111.75;37.80;;;20.30;51.60;;;;;;5080723;28;20100;-57
2021/11/14 07:25:45;;;;;;;122.22;38.40;;;20.30;51.60;;;;;;5079814;28;20515;-58
2021/11/14 07:28:12;;;;;;;116.28;36.35;;;20.30;51.40;;;;;;5060090;28;20580;-58
2021/11/14 07:30:38;;;;;;;118.22;37.55;;;20.30;51.40;;;;;;5064172;28;20069;-61
2021/11/14 07:33:05;;;;;;;108.82;35.97;;;20.30;51.30;;;;;;5065585;28;20124;-61
2021/11/14 07:35:32;;;;;;;116.82;36.17;;;20.30;51.90;;;;;;5065913;28;20083;-56
2021/11/14 07:37:58;;;;;;;101.30;37.22;;;20.20;52.10;;;;;;5082254;28;20082;-61
2021/11/14 07:40:25;;;;;;;115.68;35.00;;;20.20;52.20;;;;;;5036762;28;20089;-62
2021/11/14 07:42:53;;;;;;;107.97;34.53;;;20.20;52.30;;;;;;5064331;28;20081;-62
2021/11/14 07:45:21;;;;;;;98.93;33.47;;;20.20;52.40;;;;;;5066433;28;20442;-60
2021/11/14 07:47:52;;;;;;;121.03;37.63;;;20.20;52.70;;;;;;5050273;28;20840;-59
2021/11/14 07:50:22;;;;;;;106.45;35.15;;;20.30;64.40;;;;;;5083250;28;20431;-57
2021/11/14 07:52:48;;;;;;;106.38;37.53;;;20.00;59.10;;;;;;5047873;28;20070;-58
2021/11/14 07:55:15;;;;;;;102.93;33.42;;;19.80;69.00;;;;;;5064075;28;20084;-57
2021/11/14 07:57:45;;;;;;;87.32;34.70;;;20.30;54.50;;;;;;5067353;28;20672;-57
2021/11/14 08:00:17;;;;;;;85.80;32.40;;;19.90;52.50;;;;;;5084024;28;20111;-58
2021/11/14 08:02:44;;;;;;;93.03;31.58;;;19.90;53.20;;;;;;5050446;28;20181;-57
2021/11/14 08:05:12;;;;;;;86.65;31.13;;;19.60;59.00;;;;;;5048876;28;20121;-58
2021/11/14 08:07:38;;;;;;;82.35;30.92;;;19.80;52.90;;;;;;5062468;28;20466;-60
2021/11/14 08:10:06;;;;;;;88.80;31.35;;;20.30;54.40;;;;;;5065319;28;20163;-56
2021/11/14 08:12:33;;;;;;;78.95;29.90;;;19.70;62.40;;;;;;5083695;28;20078;-61
2021/11/14 08:15:00;;;;;;;79.97;29.55;;;20.00;81.70;;;;;;5062679;28;20017;-57
2021/11/14 08:17:26;;;;;;;78.45;31.33;;;19.50;73.70;;;;;;5082650;28;20065;-60
2021/11/14 08:19:55;;;;;;;91.05;30.85;;;19.80;52.80;;;;;;5064654;28;20163;-60
2021/11/14 08:22:22;;;;;;;89.20;32.47;;;19.50;84.10;;;;;;5080946;28;20069;-57
2021/11/14 08:24:48;;;;;;;86.75;30.75;;;19.80;90.60;;;;;;5065876;28;20069;-57
2021/11/14 08:27:15;;;;;;;86.65;32.33;;;19.80;52.70;;;;;;5046287;28;20106;-61
2021/11/14 08:29:41;;;;;;;91.25;31.10;;;19.80;53.20;;;;;;5065064;28;20073;-58
2021/11/14 08:32:08;;;;;;;76.80;31.10;;;19.70;53.80;;;;;;5063918;28;20527;-59
2021/11/14 08:34:35;;;;;;;86.95;31.15;;;19.70;54.00;;;;;;5063556;28;20464;-61
2021/11/14 08:37:01;;;;;;;95.82;33.38;;;19.60;53.60;;;;;;5065996;28;20100;-59
2021/11/14 08:39:28;;;;;;;96.00;33.50;;;19.00;54.50;;;;;;5064618;28;20481;-58
2021/11/14 08:41:54;;;;;;;89.25;31.60;;;19.60;53.70;;;;;;5062756;28;20465;-59
2021/11/14 08:44:24;;;;;;;89.53;31.58;;;19.60;53.60;;;;;;5064907;28;20149;-57
2021/11/14 08:46:52;;;;;;;96.30;33.20;;;19.60;53.70;;;;;;5062322;28;20088;-61
2021/11/14 08:49:18;;;;;;;82.45;30.88;;;19.60;54.00;;;;;;5064428;28;20088;-57
2021/11/14 08:51:45;;;;;;;79.20;31.52;;;19.60;54.20;;;;;;5063202;28;20101;-56
2021/11/14 08:54:12;;;;;;;78.40;28.42;;;19.80;62.40;;;;;;5064127;28;20068;-61
2021/11/14 08:56:39;;;;;;;;;;;19.40;54.20;;;;;;5061855;28;20461;-60
2021/11/14 08:59:07;;;;;;;85.97;31.08;;;19.40;54.30;;;;;;5062978;28;20381;-55
2021/11/14 09:01:35;;;;;;;96.78;30.45;;;19.40;54.30;;;;;;5063188;28;20135;-58
2021/11/14 09:04:01;;;;;;;88.65;28.58;;;19.40;54.10;;;;;;5064541;28;20100;-58
2021/11/14 09:06:28;;;;;;;81.88;31.17;;;19.40;54.60;;;;;;5082678;28;20073;-61
2021/11/14 09:08:55;;;;;;;68.00;29.55;;;19.20;68.80;;;;;;5063911;28;20096;-59
2021/11/14 09:11:22;;;;;;;95.30;27.40;;;;;;;;;;5049281;28;20038;-58
2021/11/14 09:13:49;;;;;;;63.33;25.52;;;;;;;;;;5063814;28;20040;-60
2021/11/14 09:16:16;;;;;;;74.53;26.52;;;19.10;92.50;;;;;;5063881;28;20075;-56
2021/11/14 09:18:42;;;;;;;70.82;24.58;;;19.10;55.20;;;;;;5062600;28;20058;-60
2021/11/14 09:21:08;;;;;;;;;;;19.10;55.80;;;;;;5044918;28;20036;-60
2021/11/14 09:23:35;;;;;;;67.32;22.95;;;;;;;;;;5064312;28;19958;-57
2021/11/14 09:26:02;;;;;;;67.63;21.50;;;19.20;50.50;;;;;;5061883;28;21044;-57
2021/11/14 09:28:28;;;;;;;71.13;22.38;;;19.20;54.00;;;;;;5081218;28;20024;-61
2021/11/14 09:30:55;;;;;;;76.82;22.27;;;19.20;50.20;;;;;;5062050;28;20381;-60
2021/11/14 09:33:26;;;;;;;67.95;21.30;;;19.20;50.80;;;;;;5080221;28;20496;-60
2021/11/14 09:35:53;;;;;;;72.55;20.85;;;19.10;49.80;;;;;;5063526;28;20035;-57
2021/11/14 09:38:20;;;;;;;78.25;20.08;;;18.90;56.60;;;;;;5044386;28;20758;-57
2021/11/14 09:40:46;;;;;;;58.70;17.95;;;19.40;64.40;;;;;;5062432;28;20466;-60
2021/11/14 09:43:13;;;;;;;60.58;18.88;;;19.20;51.50;;;;;;5062099;28;20066;-58
2021/11/14 09:45:40;;;;;;;68.63;16.90;;;18.90;51.90;;;;;;5064563;28;20062;-60
2021/11/14 09:48:07;;;;;;;62.92;16.00;;;19.30;91.10;;;;;;5061159;28;20073;-58
2021/11/14 09:50:34;;;;;;;64.32;14.60;;;19.40;59.30;;;;;;5079973;28;20485;-57
2021/11/14 09:53:01;;;;;;;43.92;13.32;;;19.10;45.60;;;;;;5080132;28;20116;-59
2021/11/14 09:55:33;;;;;;;41.28;11.60;;;19.10;57.70;;;;;;5033126;28;20140;-56
2021/11/14 09:57:59;;;;;;;54.25;12.65;;;19.00;67.30;;;;;;5043333;28;20694;-61
2021/11/14 10:00:27;;;;;;;;;;;19.10;49.10;;;;;;5047334;28;20164;-57
2021/11/14 10:02:54;;;;;;;42.50;11.52;;;19.40;72.40;;;;;;5063184;28;19937;-59
2021/11/14 10:05:21;;;;;;;40.90;10.23;;;18.70;58.60;;;;;;5047636;28;20066;-58
2021/11/14 10:07:58;;;;;;;27.60;8.15;;;19.00;53.90;;;;;;5081802;28;20103;-58
2021/11/14 10:10:27;;;;;;;30.25;8.75;;;18.90;53.70;;;;;;5080040;28;20012;-57
2021/11/14 10:12:55;;;;;;;30.13;7.93;;;18.90;53.20;;;;;;5061580;28;20111;-61
2021/11/14 10:15:23;;;;;;;32.38;7.10;;;18.90;50.60;;;;;;5062404;28;20055;-59
2021/11/14 10:17:59;;;;;;;31.20;8.18;;;18.70;61.50;;;;;;5062004;28;20024;-57
2021/11/14 10:20:31;;;;;;;30.95;7.10;;;18.90;40.90;;;;;;5079096;28;20042;-60
2021/11/14 10:23:17;;;;;;;32.53;7.35;;;19.40;86.90;;;;;;5048663;28;20549;-59
2021/11/14 10:25:45;;;;;;;29.97;6.83;;;19.20;56.60;;;;;;5062730;28;20201;-57
2021/11/14 10:28:12;;;;;;;24.65;6.53;;;18.90;41.00;;;;;;5061246;28;20066;-57
2021/11/14 10:30:42;;;;;;;32.85;5.88;;;18.80;53.60;;;;;;5063536;28;20397;-59
2021/11/14 10:33:12;;;;;;;19.77;5.60;;;18.90;40.50;;;;;;5034941;28;20181;-61
2021/11/14 10:35:41;;;;;;;22.75;5.18;;;18.40;55.20;;;;;;5063246;28;20095;-61
2021/11/14 10:38:11;;;;;;;21.77;3.78;;;18.80;39.50;;;;;;5043975;28;20081;-57
2021/11/14 10:40:42;;;;;;;26.25;4.22;;;18.80;37.70;;;;;;5061885;28;20033;-58
2021/11/14 10:43:08;;;;;;;20.67;5.47;;;18.80;37.60;;;;;;5045277;28;20032;-57
2021/11/14 10:45:38;;;;;;;23.40;6.03;;;18.80;38.10;;;;;;5060844;28;20164;-62
2021/11/14 10:48:25;;;;;;;20.77;5.28;;;18.80;38.60;;;;;;5039993;28;20108;-57
2021/11/14 10:50:57;;;;;;;25.30;4.63;;;18.80;40.70;;;;;;5049046;28;20097;-57
2021/11/14 10:53:29;;;;;;;17.85;4.32;;;18.80;38.20;;;;;;5034601;28;20437;-57
2021/11/14 10:56:04;;;;;;;17.23;4.65;;;18.80;37.20;;;;;;5061976;28;20073;-58
2021/11/14 10:58:32;;;;;;;22.58;5.47;;;18.80;37.50;;;;;;5061797;28;20076;-62
2021/11/14 11:01:08;;;;;;;19.95;4.50;;;18.80;37.30;;;;;;5080067;28;20221;-59
2021/11/14 11:03:37;;;;;;;11.95;3.90;;;18.80;37.20;;;;;;5034225;28;20080;-58
2021/11/14 11:06:06;;;;;;;18.50;4.82;;;18.80;37.10;;;;;;5061572;28;20545;-60
2021/11/14 11:08:34;;;;;;;15.98;4.07;;;18.70;37.90;;;;;;5046155;28;20697;-58
2021/11/14 11:11:06;;;;;;;27.77;4.30;;;18.70;37.60;;;;;;5043804;28;20073;-57
2021/11/14 11:13:41;;;;;;;20.25;4.95;;;18.70;37.60;;;;;;5045100;28;20835;-62
2021/11/14 11:16:14;;;;;;;22.38;4.90;;;18.70;37.70;;;;;;5078667;28;20080;-61
2021/11/14 11:18:44;;;;;;;16.45;5.18;;;18.70;38.00;;;;;;5050147;28;20162;-60
2021/11/14 11:21:14;;;;;;;16.95;5.90;;;18.70;38.30;;;;;;5046463;28;20096;-57
2021/11/14 11:23:48;;;;;;;23.30;5.13;;;18.60;38.20;;;;;;5063334;28;20174;-59
2021/11/14 11:26:18;;;;;;;17.23;4.80;;;18.50;38.10;;;;;;5061224;28;20068;-61
2021/11/14 11:28:47;;;;;;;24.48;5.55;;;18.60;38.20;;;;;;5078963;28;20545;-58
2021/11/14 11:31:22;;;;;;;21.52;5.32;;;18.60;39.00;;;;;;5066295;28;20150;-59
2021/11/14 11:33:54;;;;;;;25.33;4.68;;;18.60;38.60;;;;;;5062368;28;20527;-59
2021/11/14 11:36:23;;;;;;;17.05;3.75;;;18.50;38.70;;;;;;5061052;28;20070;-59
2021/11/14 11:38:49;;;;;;;8.55;3.42;;;18.60;39.30;;;;;;5034468;28;20159;-56
2021/11/14 11:41:19;;;;;;;16.25;3.17;;;18.50;39.30;;;;;;5079641;28;20085;-61
2021/11/14 11:43:49;;;;;;;18.90;3.67;;;18.50;39.90;;;;;;5061982;28;20156;-62
2021/11/14 11:46:18;;;;;;;20.33;3.30;;;18.40;63.00;;;;;;5060979;28;20016;-59
2021/11/14 11:49:09;;;;;;;17.58;3.08;;;18.20;50.60;;;;;;5061804;28;20159;-56
2021/11/14 11:51:40;;;;;;;18.00;3.40;;;18.40;40.10;;;;;;5062761;28;20116;-57
2021/11/14 11:54:17;;;;;;;14.10;3.47;;;18.30;40.50;;;;;;5060560;28;20416;-57
2021/11/14 11:57:03;;;;;;;19.88;3.15;;;18.30;40.80;;;;;;5043283;28;20100;-60
2021/11/14 11:59:36;;;;;;;11.40;3.20;;;18.20;41.20;;;;;;5060204;28;20162;-58
2021/11/14 12:02:12;;;;;;;13.77;2.97;;;18.10;41.10;;;;;;5062267;28;20096;-61
2021/11/14 12:04:43;;;;;;;22.95;3.53;;;17.90;41.20;;;;;;5062780;28;20585;-58
2021/11/14 12:07:15;;;;;;;26.67;3.83;;;17.90;41.50;;;;;;5061901;28;20101;-56
2021/11/14 12:09:48;;;;;;;10.93;2.78;;;17.80;42.20;;;;;;5080003;28;20364;-58
2021/11/14 12:12:44;;;;;;;13.38;3.15;;;17.90;42.30;;;;;;5061557;28;20108;-59
2021/11/14 12:15:13;;;;;;;16.00;3.60;;;17.90;42.60;;;;;;5061999;28;20166;-57
2021/11/14 12:17:48;;;;;;;19.23;3.50;;;17.80;42.80;;;;;;5061437;28;20555;-57
2021/11/14 12:20:16;;;;;;;18.75;3.47;;;17.80;43.10;;;;;;5064955;28;20077;-56
2021/11/14 12:22:55;;;;;;;23.63;4.03;;;17.90;43.50;;;;;;5063670;28;20112;-56
2021/11/14 12:25:34;;;;;;;16.33;3.25;;;17.90;44.00;;;;;;5066591;28;20084;-58
2021/11/14 12:28:16;;;;;;;15.55;3.33;;;17.80;43.90;;;;;;5065133;28;20574;-57
2021/11/14 12:33:44;;;;;;;23.23;3.88;;;17.70;43.60;;;;;;5084025;28;20190;-57
2021/11/14 12:36:38;;;;;;;21.05;4.05;;;17.60;44.30;;;;;;5064826;28;20095;-60
2021/11/14 12:39:05;;;;;;;20.95;3.83;;;17.50;44.40;;;;;;5049720;28;20100;-55
2021/11/14 12:41:31;;;;;;;;;;;17.50;44.70;;;;;;5065754;28;20077;-58